Time;durP1;ratioP1;P1;durP2;ratioP2;P2;SDS_P1;SDS_P2;PMS_P1;PMS_P2;Temp;Humidity;BMP_temperature;BMP_pressure;BME280_temperature;BME280_humidity;BME280_pressure;Samples;Min_cycle;Max_cycle;Signal;HPM_P1;HPM_P2
2023/05/04 00:02:13;;;;;;;10.30;4.13;;;;;;;;;;5039879;28;20021;-69
2023/05/04 00:04:38;;;;;;;12.35;4.13;;;;;;;;;;5054990;28;20013;-68
2023/05/04 00:07:03;;;;;;;9.00;4.17;;;;;;;;;;5051318;28;20082;-68
2023/05/04 00:09:28;;;;;;;8.25;3.95;;;;;;;;;;5061468;28;20028;-68
2023/05/04 00:11:53;;;;;;;8.30;3.53;;;;;;;;;;5058130;28;20117;-68
2023/05/04 00:14:19;;;;;;;10.90;4.30;;;;;;;;;;5042769;28;20104;-68
2023/05/04 00:16:44;;;;;;;9.82;4.53;;;;;;;;;;5053942;28;20511;-67
2023/05/04 00:19:09;;;;;;;9.25;3.95;;;;;;;;;;5063355;28;20027;-69
2023/05/04 00:21:34;;;;;;;8.82;3.90;;;;;;;;;;5048344;28;20024;-69
2023/05/04 00:24:01;;;;;;;8.03;4.03;;;;;;;;;;5046628;28;20488;-68
2023/05/04 00:26:26;;;;;;;9.48;4.47;;;;;;;;;;5046078;28;20563;-68
2023/05/04 00:28:51;;;;;;;9.57;3.90;;;;;;;;;;5041758;28;20627;-68
2023/05/04 00:31:17;;;;;;;9.20;4.03;;;;;;;;;;5035934;28;20017;-70
2023/05/04 00:33:42;;;;;;;10.85;4.28;;;;;;;;;;5043809;28;20025;-70
2023/05/04 00:36:08;;;;;;;11.40;3.93;;;;;;;;;;5041655;28;20078;-70
2023/05/04 00:38:49;;;;;;;9.30;4.10;;;;;;;;;;5045903;28;20379;-70
2023/05/04 00:41:14;;;;;;;10.88;4.07;;;;;;;;;;5054695;28;20610;-70
2023/05/04 00:43:40;;;;;;;10.80;3.75;;;;;;;;;;5043306;28;20047;-70
2023/05/04 00:46:05;;;;;;;8.70;3.77;;;;;;;;;;5055224;28;20035;-69
2023/05/04 00:48:30;;;;;;;7.13;3.83;;;;;;;;;;5049443;28;20025;-70
2023/05/04 00:50:56;;;;;;;9.98;3.67;;;;;;;;;;5054001;28;20059;-68
2023/05/04 00:53:21;;;;;;;8.50;4.20;;;;;;;;;;5054424;28;20022;-67
2023/05/04 00:55:46;;;;;;;9.63;3.95;;;;;;;;;;5052342;28;20078;-69
2023/05/04 00:58:11;;;;;;;10.50;4.30;;;;;;;;;;5045719;28;20021;-70
2023/05/04 01:00:36;;;;;;;11.48;4.57;;;;;;;;;;5048914;28;20017;-69
2023/05/04 01:03:02;;;;;;;8.33;3.77;;;;;;;;;;5044956;28;20021;-69
2023/05/04 01:05:30;;;;;;;9.10;4.18;;;;;;;;;;5048420;28;20111;-69
2023/05/04 01:07:55;;;;;;;9.23;4.43;;;;;;;;;;5060908;28;20511;-69
2023/05/04 01:10:31;;;;;;;9.80;4.50;;;;;;;;;;5050057;28;20017;-68
2023/05/04 01:13:00;;;;;;;9.57;4.38;;;;;;;;;;5055345;28;20102;-69
2023/05/04 01:15:26;;;;;;;8.35;4.25;;;;;;;;;;5043270;28;20481;-69
2023/05/04 01:17:51;;;;;;;8.73;4.05;;;;;;;;;;5053807;28;20060;-69
2023/05/04 01:20:16;;;;;;;10.07;4.20;;;;;;;;;;5053320;28;20025;-69
2023/05/04 01:22:41;;;;;;;9.13;4.20;;;;;;;;;;5046132;28;20078;-68
2023/05/04 01:25:07;;;;;;;8.15;4.00;;;;;;;;;;5046110;28;20028;-69
2023/05/04 01:27:32;;;;;;;8.45;4.30;;;;;;;;;;5050487;28;20044;-68
2023/05/04 01:30:00;;;;;;;10.23;4.43;;;;;;;;;;5036925;28;20025;-69
2023/05/04 01:32:30;;;;;;;11.02;4.47;;;;;;;;;;5057475;28;20035;-69
2023/05/04 01:34:55;;;;;;;10.18;4.38;;;;;;;;;;5038760;28;20540;-69
2023/05/04 01:37:20;;;;;;;9.20;4.65;;;;;;;;;;5049574;28;20041;-69
2023/05/04 01:39:45;;;;;;;9.93;4.13;;;;;;;;;;5045537;28;20032;-69
2023/05/04 01:42:11;;;;;;;8.25;4.30;;;;;;;;;;5045539;28;20017;-69
2023/05/04 01:44:36;;;;;;;7.55;4.15;;;;;;;;;;5042810;28;20026;-69
2023/05/04 01:47:01;;;;;;;8.27;4.37;;;;;;;;;;5059318;28;20030;-69
2023/05/04 01:49:26;;;;;;;12.18;4.88;;;;;;;;;;5047556;28;20021;-70
2023/05/04 01:51:51;;;;;;;8.82;4.25;;;;;;;;;;5048609;28;20082;-68
2023/05/04 01:54:17;;;;;;;9.00;4.50;;;;;;;;;;5053609;28;20531;-68
2023/05/04 01:56:42;;;;;;;9.52;4.80;;;;;;;;;;5047715;28;20112;-70
2023/05/04 01:59:07;;;;;;;10.95;4.28;;;;;;;;;;5054287;28;20041;-69
2023/05/04 02:01:32;;;;;;;9.88;4.70;;;;;;;;;;5050125;28;20019;-69
2023/05/04 02:03:57;;;;;;;10.38;4.00;;;;;;;;;;5049032;28;20049;-68
2023/05/04 02:06:22;;;;;;;12.13;4.25;;;;;;;;;;5045356;28;20018;-68
2023/05/04 02:08:47;;;;;;;9.00;4.20;;;;;;;;;;5044859;28;20029;-68
2023/05/04 02:11:15;;;;;;;11.17;4.37;;;;;;;;;;5050588;28;20021;-70
2023/05/04 02:13:40;;;;;;;7.90;3.78;;;;;;;;;;5052752;28;20016;-69
2023/05/04 02:16:05;;;;;;;8.53;4.20;;;;;;;;;;5040733;28;20017;-69
2023/05/04 02:18:30;;;;;;;9.13;4.10;;;;;;;;;;5047340;28;20049;-69
2023/05/04 02:20:55;;;;;;;9.80;4.10;;;;;;;;;;5045685;28;20491;-70
2023/05/04 02:23:21;;;;;;;7.40;3.72;;;;;;;;;;5051217;28;20115;-70
2023/05/04 02:25:46;;;;;;;7.57;3.92;;;;;;;;;;5042429;28;20037;-69
2023/05/04 02:28:11;;;;;;;7.43;4.13;;;;;;;;;;5046636;28;20022;-69
2023/05/04 02:30:36;;;;;;;9.30;4.00;;;;;;;;;;5060418;28;20053;-68
2023/05/04 02:33:01;;;;;;;10.93;4.40;;;;;;;;;;5049668;28;20029;-70
2023/05/04 02:35:26;;;;;;;7.93;3.80;;;;;;;;;;5057482;28;20028;-68
2023/05/04 02:37:51;;;;;;;15.47;5.20;;;;;;;;;;5049274;28;20033;-68
2023/05/04 02:40:17;;;;;;;7.72;4.05;;;;;;;;;;5044694;28;20028;-69
2023/05/04 02:42:42;;;;;;;8.70;4.47;;;;;;;;;;5038301;28;20025;-68
2023/05/04 02:45:07;;;;;;;11.13;4.60;;;;;;;;;;5050903;28;20037;-70
2023/05/04 02:47:32;;;;;;;9.40;4.82;;;;;;;;;;5052645;28;20035;-70
2023/05/04 02:49:57;;;;;;;9.83;4.80;;;;;;;;;;5050463;28;20021;-68
2023/05/04 02:52:23;;;;;;;9.32;3.88;;;;;;;;;;5059856;28;20067;-69
2023/05/04 02:54:48;;;;;;;9.33;3.70;;;;;;;;;;5064868;28;20510;-68
2023/05/04 02:57:13;;;;;;;8.33;4.13;;;;;;;;;;5056863;28;20416;-69
2023/05/04 02:59:38;;;;;;;7.88;3.92;;;;;;;;;;5063310;28;20107;-69
2023/05/04 03:02:03;;;;;;;9.43;4.40;;;;;;;;;;5057693;28;20017;-68
2023/05/04 03:04:28;;;;;;;8.77;4.15;;;;;;;;;;5052582;28;20396;-68
2023/05/04 03:06:53;;;;;;;8.73;4.10;;;;;;;;;;5057642;28;20052;-69
2023/05/04 03:09:19;;;;;;;9.80;4.30;;;;;;;;;;5051551;28;20508;-68
2023/05/04 03:11:44;;;;;;;11.10;4.47;;;;;;;;;;5052338;28;20093;-67
2023/05/04 03:14:09;;;;;;;9.17;4.40;;;;;;;;;;5061242;28;20013;-68
2023/05/04 03:16:34;;;;;;;8.60;4.47;;;;;;;;;;5058709;28;20033;-67
2023/05/04 03:18:59;;;;;;;10.50;4.30;;;;;;;;;;5054166;28;20029;-67
2023/05/04 03:21:25;;;;;;;8.05;4.40;;;;;;;;;;5053850;28;20052;-66
2023/05/04 03:23:50;;;;;;;10.63;4.60;;;;;;;;;;5058880;28;20066;-66
2023/05/04 03:26:15;;;;;;;11.00;4.60;;;;;;;;;;5052472;28;20112;-67
2023/05/04 03:28:40;;;;;;;12.17;4.50;;;;;;;;;;5052531;28;20021;-66
2023/05/04 03:31:05;;;;;;;8.23;4.07;;;;;;;;;;5055129;28;20020;-66
2023/05/04 03:33:30;;;;;;;9.87;4.97;;;;;;;;;;5051929;28;20017;-66
2023/05/04 03:35:55;;;;;;;7.55;4.07;;;;;;;;;;5052649;28;20029;-67
2023/05/04 03:38:21;;;;;;;7.80;4.13;;;;;;;;;;5051319;28;20029;-67
2023/05/04 03:40:46;;;;;;;8.63;4.28;;;;;;;;;;5047547;28;20063;-66
2023/05/04 03:43:11;;;;;;;11.13;4.67;;;;;;;;;;5047046;28;20024;-67
2023/05/04 03:45:36;;;;;;;8.85;4.38;;;;;;;;;;5052339;28;20031;-67
2023/05/04 03:48:01;;;;;;;8.77;4.17;;;;;;;;;;5049493;28;20005;-67
2023/05/04 03:50:26;;;;;;;10.30;4.00;;;;;;;;;;5051319;28;20491;-67
2023/05/04 03:52:52;;;;;;;10.23;4.77;;;;;;;;;;5053378;28;20021;-66
2023/05/04 03:55:17;;;;;;;9.73;4.93;;;;;;;;;;5060067;28;20040;-67
2023/05/04 03:57:42;;;;;;;10.03;4.17;;;;;;;;;;5050367;28;20037;-67
2023/05/04 04:00:08;;;;;;;9.45;4.57;;;;;;;;;;5050480;28;20146;-67
2023/05/04 04:02:33;;;;;;;8.30;4.30;;;;;;;;;;5046167;28;20411;-66
2023/05/04 04:04:58;;;;;;;8.77;4.40;;;;;;;;;;5054963;28;20027;-65
2023/05/04 04:07:23;;;;;;;8.23;4.13;;;;;;;;;;5058887;28;20021;-66
2023/05/04 04:09:48;;;;;;;8.90;4.40;;;;;;;;;;5060048;28;20108;-65
2023/05/04 04:12:17;;;;;;;12.10;4.60;;;;;;;;;;5066326;28;20028;-65
2023/05/04 04:14:42;;;;;;;12.80;4.72;;;;;;;;;;5048354;28;20029;-67
2023/05/04 04:17:07;;;;;;;8.98;4.38;;;;;;;;;;5052189;28;20044;-68
2023/05/04 04:19:32;;;;;;;8.15;4.35;;;;;;;;;;5049048;28;20487;-68
2023/05/04 04:21:58;;;;;;;12.00;5.20;;;;;;;;;;5049100;28;20016;-68
2023/05/04 04:24:24;;;;;;;10.05;4.70;;;;;;;;;;5052532;28;20028;-68
2023/05/04 04:26:49;;;;;;;10.27;5.68;;;;;;;;;;5048954;28;20021;-67
2023/05/04 04:29:14;;;;;;;10.05;5.28;;;;;;;;;;5045151;28;20078;-67
2023/05/04 04:31:40;;;;;;;9.73;5.40;;;;;;;;;;5039137;28;20040;-66
2023/05/04 04:34:05;;;;;;;10.73;4.90;;;;;;;;;;5045863;28;20212;-66
2023/05/04 04:36:30;;;;;;;9.68;4.88;;;;;;;;;;5058405;28;20377;-67
2023/05/04 04:38:55;;;;;;;10.50;4.68;;;;;;;;;;5059928;28;20158;-67
2023/05/04 04:41:20;;;;;;;11.23;4.65;;;;;;;;;;5028143;28;20157;-68
2023/05/04 04:43:46;;;;;;;8.47;4.10;;;;;;;;;;5036702;28;20529;-67
2023/05/04 04:46:11;;;;;;;8.48;4.50;;;;;;;;;;5034590;28;20028;-72
2023/05/04 04:48:36;;;;;;;8.15;4.78;;;;;;;;;;5035182;28;20034;-72
2023/05/04 04:51:01;;;;;;;9.37;4.63;;;;;;;;;;5030495;28;20021;-72
2023/05/04 04:53:27;;;;;;;10.00;4.50;;;;;;;;;;5038398;28;20558;-72
2023/05/04 04:55:52;;;;;;;10.40;4.45;;;;;;;;;;5032268;28;20025;-72
2023/05/04 04:58:18;;;;;;;9.48;4.55;;;;;;;;;;5035304;28;20033;-72
2023/05/04 05:00:44;;;;;;;9.37;4.40;;;;;;;;;;5039391;28;20033;-71
2023/05/04 05:03:09;;;;;;;9.13;4.05;;;;;;;;;;5035317;28;20021;-72
2023/05/04 05:05:34;;;;;;;9.63;4.18;;;;;;;;;;5038752;28;20095;-73
2023/05/04 05:07:59;;;;;;;11.00;4.38;;;;;;;;;;5034109;28;20162;-72
2023/05/04 05:10:25;;;;;;;9.23;4.20;;;;;;;;;;5037319;28;20021;-72
2023/05/04 05:12:50;;;;;;;7.07;3.97;;;;;;;;;;5039688;28;20116;-71
2023/05/04 05:15:15;;;;;;;7.75;3.58;;;;;;;;;;5045634;28;20459;-71
2023/05/04 05:17:40;;;;;;;8.98;3.75;;;;;;;;;;5052198;28;20484;-71
2023/05/04 05:20:09;;;;;;;11.17;4.00;;;;;;;;;;5047890;28;20078;-71
2023/05/04 05:22:34;;;;;;;11.23;4.30;;;;;;;;;;5042458;28;20286;-71
2023/05/04 05:24:59;;;;;;;9.00;4.40;;;;;;;;;;5042943;28;20503;-71
2023/05/04 05:27:24;;;;;;;8.43;3.88;;;;;;;;;;5046794;28;20028;-72
2023/05/04 05:29:50;;;;;;;7.22;3.70;;;;;;;;;;5064161;28;20354;-71
2023/05/04 05:32:15;;;;;;;9.55;3.97;;;;;;;;;;5055293;28;20021;-71
2023/05/04 05:34:41;;;;;;;9.07;3.83;;;;;;;;;;5070113;28;20051;-72
2023/05/04 05:37:06;;;;;;;9.80;4.10;;;;;;;;;;5048693;28;20436;-71
2023/05/04 05:39:31;;;;;;;12.13;4.10;;;;;;;;;;5050586;28;20574;-72
2023/05/04 05:41:59;;;;;;;8.75;4.18;;;;;;;;;;5055890;28;20029;-71
2023/05/04 05:44:24;;;;;;;10.18;4.03;;;;;;;;;;5058223;28;20438;-72
2023/05/04 05:46:49;;;;;;;8.37;3.93;;;;;;;;;;5044407;28;20472;-72
2023/05/04 05:49:15;;;;;;;9.17;3.97;;;;;;;;;;5043664;28;20108;-71
2023/05/04 05:51:40;;;;;;;7.05;3.88;;;;;;;;;;5047798;28;20052;-71
2023/05/04 05:54:05;;;;;;;9.90;4.30;;;;;;;;;;5061886;28;20020;-71
2023/05/04 05:56:31;;;;;;;10.77;4.22;;;;;;;;;;5047521;28;20156;-71
2023/05/04 05:58:56;;;;;;;7.65;3.90;;;;;;;;;;5049335;28;20021;-72
2023/05/04 06:01:21;;;;;;;11.73;3.92;;;;;;;;;;5047038;28;20025;-71
2023/05/04 06:03:46;;;;;;;9.90;4.13;;;;;;;;;;5040916;28;20462;-72
2023/05/04 06:06:11;;;;;;;7.85;3.65;;;;;;;;;;5040140;28;20010;-71
2023/05/04 06:08:37;;;;;;;9.45;4.00;;;;;;;;;;5050162;28;20013;-72
2023/05/04 06:11:02;;;;;;;8.00;3.40;;;;;;;;;;5042449;28;20101;-71
2023/05/04 06:13:27;;;;;;;9.60;3.93;;;;;;;;;;5037058;28;20087;-72
2023/05/04 06:15:52;;;;;;;10.23;3.80;;;;;;;;;;5044071;28;20088;-72
2023/05/04 06:18:19;;;;;;;7.15;3.65;;;;;;;;;;5043891;28;20041;-71
2023/05/04 06:20:44;;;;;;;7.30;3.30;;;;;;;;;;5048400;28;20039;-71
2023/05/04 06:23:09;;;;;;;9.47;4.30;;;;;;;;;;5046574;28;20096;-71
2023/05/04 06:25:34;;;;;;;7.75;4.10;;;;;;;;;;5048691;28;20048;-71
2023/05/04 06:27:59;;;;;;;8.80;4.00;;;;;;;;;;5049542;28;20025;-73
2023/05/04 06:30:25;;;;;;;8.85;4.25;;;;;;;;;;5041852;28;20467;-73
2023/05/04 06:32:50;;;;;;;9.45;4.07;;;;;;;;;;5055490;28;20074;-71
2023/05/04 06:35:15;;;;;;;8.80;3.87;;;;;;;;;;5049438;28;20040;-72
2023/05/04 06:37:41;;;;;;;7.87;3.73;;;;;;;;;;5058733;28;20029;-71
2023/05/04 06:40:06;;;;;;;11.48;4.75;;;;;;;;;;5046237;28;20024;-71
2023/05/04 06:42:32;;;;;;;7.50;4.18;;;;;;;;;;5049202;28;20028;-71
2023/05/04 06:44:57;;;;;;;9.93;4.05;;;;;;;;;;5045138;28;20369;-70
2023/05/04 06:47:22;;;;;;;9.77;3.80;;;;;;;;;;5050795;28;20040;-71
2023/05/04 06:49:47;;;;;;;7.78;3.80;;;;;;;;;;5056386;28;20158;-71
2023/05/04 06:52:13;;;;;;;9.35;3.75;;;;;;;;;;5055648;28;20506;-71
2023/05/04 06:54:38;;;;;;;11.25;3.92;;;;;;;;;;5050198;28;20021;-72
2023/05/04 06:57:04;;;;;;;8.52;3.90;;;;;;;;;;5054468;28;20035;-71
2023/05/04 06:59:29;;;;;;;7.77;3.70;;;;;;;;;;5065053;28;20029;-73
2023/05/04 07:01:54;;;;;;;8.23;3.50;;;;;;;;;;5075756;28;20051;-71
2023/05/04 07:04:22;;;;;;;8.00;4.05;;;;;;;;;;5049680;28;20115;-68
2023/05/04 07:06:51;;;;;;;8.65;3.40;;;;;;;;;;5052518;28;20022;-66
2023/05/04 07:09:17;;;;;;;8.38;3.33;;;;;;;;;;5042337;28;20558;-66
2023/05/04 07:11:43;;;;;;;9.60;3.42;;;;;;;;;;5055546;28;20366;-66
2023/05/04 07:14:08;;;;;;;8.40;3.60;;;;;;;;;;5048597;28;20087;-67
2023/05/04 07:16:34;;;;;;;9.13;3.33;;;;;;;;;;5066786;28;20075;-68
2023/05/04 07:18:59;;;;;;;;;;;;;;;;;;5060702;28;20021;-68
2023/05/04 07:21:25;;;;;;;7.72;3.40;;;;;;;;;;5052439;28;20433;-68
2023/05/04 07:23:50;;;;;;;8.70;3.43;;;;;;;;;;5058969;28;20021;-67
2023/05/04 07:26:15;;;;;;;7.72;3.28;;;;;;;;;;5047091;28;20161;-66
2023/05/04 07:28:42;;;;;;;9.90;3.30;;;;;;;;;;5048840;28;20067;-66
2023/05/04 07:31:07;;;;;;;10.05;3.28;;;;;;;;;;5056315;28;20013;-65
2023/05/04 07:33:32;;;;;;;6.73;3.10;;;;;;;;;;5059504;28;20583;-66
2023/05/04 07:35:58;;;;;;;8.48;3.28;;;;;;;;;;5060071;28;20465;-66
2023/05/04 07:38:24;;;;;;;8.10;3.47;;;;;;;;;;5060571;28;20045;-66
2023/05/04 07:40:49;;;;;;;6.10;3.33;;;;;;;;;;5063073;28;20466;-66
2023/05/04 07:43:14;;;;;;;8.23;2.90;;;;;;;;;;5047294;28;20040;-66
2023/05/04 07:45:40;;;;;;;8.48;3.22;;;;;;;;;;5064894;28;20052;-66
2023/05/04 07:48:06;;;;;;;7.60;2.85;;;;;;;;;;5050076;28;20025;-67
2023/05/04 07:50:31;;;;;;;;;;;;;;;;;;5062100;28;20024;-66
2023/05/04 07:52:56;;;;;;;7.45;2.88;;;;;;;;;;5063777;28;19919;-67
2023/05/04 07:55:21;;;;;;;6.97;2.70;;;;;;;;;;5055111;28;20670;-67
2023/05/04 07:57:47;;;;;;;6.70;2.65;;;;;;;;;;5051036;28;20021;-67
2023/05/04 08:00:13;;;;;;;8.77;2.87;;;;;;;;;;5058649;28;20025;-67
2023/05/04 08:02:38;;;;;;;8.77;2.92;;;;;;;;;;5042420;28;20032;-66
2023/05/04 08:05:04;;;;;;;5.63;2.40;;;;;;;;;;5050115;28;20388;-67
2023/05/04 08:07:29;;;;;;;6.38;2.25;;;;;;;;;;5060755;28;20495;-67
2023/05/04 08:09:56;;;;;;;6.00;2.50;;;;;;;;;;5057529;28;20503;-67
2023/05/04 08:12:22;;;;;;;6.72;2.30;;;;;;;;;;5058105;28;20036;-66
2023/05/04 08:14:47;;;;;;;7.78;2.28;;;;;;;;;;5044808;28;20020;-67
2023/05/04 08:17:13;;;;;;;6.28;2.42;;;;;;;;;;5056575;28;20525;-67
2023/05/04 08:19:38;;;;;;;6.70;2.17;;;;;;;;;;5058654;28;20024;-67
2023/05/04 08:22:03;;;;;;;9.32;2.10;;;;;;;;;;5055994;28;20117;-66
2023/05/04 08:24:29;;;;;;;10.93;2.60;;;;;;;;;;5049366;28;20516;-66
2023/05/04 08:26:55;;;;;;;8.80;2.92;;;;;;;;;;5052817;28;20025;-65
2023/05/04 08:29:21;;;;;;;7.00;2.08;;;;;;;;;;5036163;28;20535;-68
2023/05/04 08:31:46;;;;;;;6.47;2.10;;;;;;;;;;5047631;28;20063;-66
2023/05/04 08:34:11;;;;;;;9.87;2.47;;;;;;;;;;5044430;28;20481;-65
2023/05/04 08:36:36;;;;;;;7.03;2.45;;;;;;;;;;5050339;28;20409;-68
2023/05/04 08:39:01;;;;;;;6.70;2.53;;;;;;;;;;5066318;28;20099;-68
2023/05/04 08:41:27;;;;;;;7.37;2.53;;;;;;;;;;5066849;28;20442;-67
2023/05/04 08:43:52;;;;;;;9.70;2.50;;;;;;;;;;5058257;28;20095;-68
2023/05/04 08:46:17;;;;;;;5.40;1.87;;;;;;;;;;5041817;28;20101;-67
2023/05/04 08:48:43;;;;;;;9.20;2.57;;;;;;;;;;5049252;28;20435;-68
2023/05/04 08:51:09;;;;;;;11.18;2.72;;;;;;;;;;5050646;28;20031;-66
2023/05/04 08:53:35;;;;;;;8.65;2.38;;;;;;;;;;5059066;28;20451;-66
2023/05/04 08:56:03;;;;;;;8.18;2.83;;;;;;;;;;5056060;28;20021;-66
2023/05/04 08:58:28;;;;;;;7.40;2.05;;;;;;;;;;5059613;28;20036;-67
2023/05/04 09:00:54;;;;;;;8.68;2.70;;;;;;;;;;5057976;28;20027;-67
2023/05/04 09:03:19;;;;;;;6.18;2.20;;;;;;;;;;5045563;28;20159;-67
2023/05/04 09:05:45;;;;;;;5.32;2.42;;;;;;;;;;5054297;28;20090;-66
2023/05/04 09:08:10;;;;;;;6.47;2.28;;;;;;;;;;5055304;28;20013;-66
2023/05/04 09:10:35;;;;;;;8.30;2.30;;;;;;;;;;5068373;28;20380;-66
2023/05/04 09:13:00;;;;;;;8.20;2.37;;;;;;;;;;5051019;28;20029;-67
2023/05/04 09:15:26;;;;;;;6.60;2.00;;;;;;;;;;5049413;28;20447;-67
2023/05/04 09:17:58;;;;;;;7.47;2.37;;;;;;;;;;5050087;28;20037;-66
2023/05/04 09:20:24;;;;;;;6.15;2.08;;;;;;;;;;5060901;28;20831;-67
2023/05/04 09:23:08;;;;;;;7.03;2.30;;;;;;;;;;5061649;28;20020;-66
2023/05/04 09:25:33;;;;;;;6.07;2.15;;;;;;;;;;5063865;28;20036;-66
2023/05/04 09:27:59;;;;;;;8.13;2.35;;;;;;;;;;5037749;28;20083;-67
2023/05/04 09:30:24;;;;;;;11.83;2.40;;;;;;;;;;5037789;28;20477;-67
2023/05/04 09:32:49;;;;;;;7.63;2.37;;;;;;;;;;5049106;28;20059;-66
2023/05/04 09:35:15;;;;;;;7.83;2.20;;;;;;;;;;5055002;28;20063;-66
2023/05/04 09:37:47;;;;;;;5.15;1.98;;;;;;;;;;5052918;28;20056;-66
2023/05/04 09:40:12;;;;;;;6.97;2.30;;;;;;;;;;5041676;28;20557;-66
2023/05/04 09:42:38;;;;;;;7.93;2.22;;;;;;;;;;5048830;28;20029;-67
2023/05/04 09:45:04;;;;;;;9.15;2.20;;;;;;;;;;5047592;28;20112;-67
2023/05/04 09:47:31;;;;;;;6.68;1.90;;;;;;;;;;5053514;28;20070;-66
2023/05/04 09:49:57;;;;;;;7.85;2.40;;;;;;;;;;5051144;28;20028;-66
2023/05/04 09:52:22;;;;;;;7.50;2.10;;;;;;;;;;5054897;28;20037;-66
2023/05/04 09:54:47;;;;;;;6.73;2.20;;;;;;;;;;5058233;28;20545;-66
2023/05/04 09:57:14;;;;;;;6.18;1.98;;;;;;;;;;5058349;28;20498;-65
2023/05/04 09:59:39;;;;;;;6.07;2.17;;;;;;;;;;5061442;28;20055;-67
2023/05/04 10:02:05;;;;;;;6.82;2.22;;;;;;;;;;5061432;28;20055;-66
2023/05/04 10:04:31;;;;;;;7.45;1.90;;;;;;;;;;5058466;28;20020;-67
2023/05/04 10:06:57;;;;;;;6.43;2.15;;;;;;;;;;5050604;28;20025;-66
2023/05/04 10:09:22;;;;;;;6.10;2.07;;;;;;;;;;5048458;28;20025;-67
2023/05/04 10:11:47;;;;;;;6.23;2.10;;;;;;;;;;5061641;28;20451;-67
2023/05/04 10:14:13;;;;;;;5.82;1.90;;;;;;;;;;5054599;28;20025;-67
2023/05/04 10:16:47;;;;;;;9.85;2.22;;;;;;;;;;5052008;28;20107;-65
2023/05/04 10:19:16;;;;;;;5.35;2.17;;;;;;;;;;5060493;28;20023;-67
2023/05/04 10:21:50;;;;;;;9.80;2.10;;;;;;;;;;5046371;28;20013;-66
2023/05/04 10:24:34;;;;;;;6.70;2.22;;;;;;;;;;5049699;28;20028;-66
2023/05/04 10:27:15;;;;;;;5.57;2.22;;;;;;;;;;5055947;28;20483;-67
2023/05/04 10:29:41;;;;;;;7.18;2.00;;;;;;;;;;5063259;28;20032;-65
2023/05/04 10:32:20;;;;;;;5.57;1.85;;;;;;;;;;5052627;28;20056;-64
2023/05/04 10:34:45;;;;;;;6.72;2.22;;;;;;;;;;5043746;28;20035;-65
2023/05/04 10:37:17;;;;;;;8.27;2.10;;;;;;;;;;5056001;28;20112;-66
2023/05/04 10:39:49;;;;;;;6.63;2.20;;;;;;;;;;5054751;28;20455;-66
2023/05/04 10:42:14;;;;;;;6.30;2.20;;;;;;;;;;5064205;28;20028;-66
2023/05/04 10:44:53;;;;;;;6.07;2.10;;;;;;;;;;5056086;28;20020;-66
2023/05/04 10:47:28;;;;;;;9.15;2.33;;;;;;;;;;5043382;28;20031;-67
2023/05/04 10:50:07;;;;;;;6.63;1.83;;;;;;;;;;5052017;28;20070;-66
2023/05/04 10:52:44;;;;;;;7.53;2.13;;;;;;;;;;5060841;28;20446;-68
2023/05/04 10:55:09;;;;;;;8.10;2.13;;;;;;;;;;5056007;28;20031;-66
2023/05/04 10:57:44;;;;;;;4.85;1.70;;;;;;;;;;5063129;28;20025;-67
2023/05/04 11:00:10;;;;;;;7.18;2.03;;;;;;;;;;5055275;28;20055;-65
2023/05/04 11:02:36;;;;;;;5.97;2.08;;;;;;;;;;5045280;28;20388;-66
2023/05/04 11:05:03;;;;;;;6.40;2.00;;;;;;;;;;5058327;28;20109;-66
2023/05/04 11:07:31;;;;;;;5.78;1.88;;;;;;;;;;5062258;28;20016;-67
2023/05/04 11:09:57;;;;;;;7.78;1.95;;;;;;;;;;5060107;28;20021;-65
2023/05/04 11:12:23;;;;;;;5.45;1.98;;;;;;;;;;5049609;28;20024;-65
2023/05/04 11:14:48;;;;;;;6.95;2.30;;;;;;;;;;5048427;28;20025;-66
2023/05/04 11:17:14;;;;;;;6.35;1.90;;;;;;;;;;5064742;28;20028;-67
2023/05/04 11:19:48;;;;;;;6.00;1.80;;;;;;;;;;5057230;28;20078;-66
2023/05/04 11:22:13;;;;;;;5.78;2.10;;;;;;;;;;5058892;28;20536;-66
2023/05/04 11:24:41;;;;;;;7.40;2.00;;;;;;;;;;5065407;28;20048;-66
2023/05/04 11:27:06;;;;;;;5.07;1.88;;;;;;;;;;5041003;28;20068;-66
2023/05/04 11:29:31;;;;;;;6.47;1.80;;;;;;;;;;5047436;28;20276;-66
2023/05/04 11:31:57;;;;;;;6.78;2.03;;;;;;;;;;5055469;28;20017;-65
2023/05/04 11:34:22;;;;;;;6.80;2.00;;;;;;;;;;5042010;28;20037;-66
2023/05/04 11:36:48;;;;;;;5.70;1.73;;;;;;;;;;5047068;28;20060;-66
2023/05/04 11:39:13;;;;;;;4.57;1.60;;;;;;;;;;5047859;28;21072;-66
2023/05/04 11:41:38;;;;;;;5.80;2.00;;;;;;;;;;5046592;28;20027;-65
2023/05/04 11:44:04;;;;;;;6.50;1.88;;;;;;;;;;5046043;28;20017;-66
2023/05/04 11:46:31;;;;;;;6.50;1.85;;;;;;;;;;5059590;28;20029;-67
2023/05/04 11:48:57;;;;;;;7.25;1.90;;;;;;;;;;5055049;28;20021;-66
2023/05/04 11:51:23;;;;;;;;;;;;;;;;;;5043944;28;20064;-67
2023/05/04 11:53:48;;;;;;;6.43;2.10;;;;;;;;;;5059442;28;19948;-67
2023/05/04 11:56:13;;;;;;;8.63;2.27;;;;;;;;;;5058489;28;20111;-67
2023/05/04 11:58:39;;;;;;;6.95;1.90;;;;;;;;;;5055505;28;20071;-67
2023/05/04 12:01:04;;;;;;;5.20;1.80;;;;;;;;;;5051787;28;20029;-67
2023/05/04 12:03:33;;;;;;;5.63;2.00;;;;;;;;;;5056269;28;20025;-65
2023/05/04 12:05:59;;;;;;;6.63;1.90;;;;;;;;;;5057181;28;20452;-66
2023/05/04 12:08:25;;;;;;;5.75;1.80;;;;;;;;;;5063863;28;20021;-68
2023/05/04 12:10:51;;;;;;;5.38;2.00;;;;;;;;;;5066513;28;20020;-66
2023/05/04 12:13:16;;;;;;;6.03;1.90;;;;;;;;;;5060986;28;20063;-67
2023/05/04 12:15:42;;;;;;;5.67;2.10;;;;;;;;;;5053826;28;20044;-65
2023/05/04 12:18:07;;;;;;;6.85;2.08;;;;;;;;;;5046082;28;20032;-66
2023/05/04 12:20:32;;;;;;;8.70;2.10;;;;;;;;;;5047753;28;20548;-66
2023/05/04 12:23:04;;;;;;;7.47;1.90;;;;;;;;;;5061800;28;20074;-65
2023/05/04 12:25:29;;;;;;;5.93;1.98;;;;;;;;;;5063361;28;20468;-67
2023/05/04 12:27:54;;;;;;;7.10;1.80;;;;;;;;;;5062414;28;20037;-65
2023/05/04 12:30:20;;;;;;;6.47;2.05;;;;;;;;;;5034175;28;20459;-66
2023/05/04 12:32:45;;;;;;;5.10;1.88;;;;;;;;;;5048299;28;20025;-66
2023/05/04 12:35:10;;;;;;;6.38;1.85;;;;;;;;;;5058220;28;20008;-66
2023/05/04 12:37:36;;;;;;;7.13;1.97;;;;;;;;;;5044046;28;20041;-66
2023/05/04 12:40:02;;;;;;;5.65;1.80;;;;;;;;;;5051386;28;20024;-66
2023/05/04 12:42:27;;;;;;;7.20;2.05;;;;;;;;;;5057858;28;20013;-66
2023/05/04 12:44:52;;;;;;;7.65;2.00;;;;;;;;;;5050856;28;20090;-66
2023/05/04 12:47:19;;;;;;;6.63;1.77;;;;;;;;;;5046137;28;20392;-66
2023/05/04 12:49:44;;;;;;;5.82;1.70;;;;;;;;;;5049885;28;20017;-66
2023/05/04 12:52:09;;;;;;;6.38;1.98;;;;;;;;;;5050112;28;20031;-67
2023/05/04 12:54:34;;;;;;;6.00;1.80;;;;;;;;;;5050664;28;20116;-66
2023/05/04 12:57:01;;;;;;;5.75;1.85;;;;;;;;;;5051014;28;20485;-66
2023/05/04 12:59:26;;;;;;;5.57;1.80;;;;;;;;;;5050842;28;20534;-66
2023/05/04 13:01:51;;;;;;;6.82;1.73;;;;;;;;;;5047328;28;20029;-66
2023/05/04 13:04:16;;;;;;;6.83;2.00;;;;;;;;;;5042158;28;20405;-66
2023/05/04 13:06:41;;;;;;;6.23;1.80;;;;;;;;;;5042392;28;20445;-66
2023/05/04 13:09:07;;;;;;;7.47;1.90;;;;;;;;;;5049047;28;20067;-67
2023/05/04 13:11:32;;;;;;;8.40;2.15;;;;;;;;;;5043576;28;20483;-66
2023/05/04 13:13:58;;;;;;;6.80;2.00;;;;;;;;;;5050160;28;20040;-66
2023/05/04 13:16:25;;;;;;;4.73;1.70;;;;;;;;;;5050737;28;20070;-65
2023/05/04 13:18:50;;;;;;;6.40;1.98;;;;;;;;;;5057351;28;20009;-66
2023/05/04 13:21:16;;;;;;;5.13;1.75;;;;;;;;;;5050448;28;20029;-66
2023/05/04 13:23:41;;;;;;;5.13;1.80;;;;;;;;;;5047143;28;20021;-66
2023/05/04 13:26:06;;;;;;;6.57;1.73;;;;;;;;;;5053391;28;20411;-66
2023/05/04 13:28:31;;;;;;;5.90;2.00;;;;;;;;;;5048763;28;20028;-65
2023/05/04 13:30:56;;;;;;;4.95;1.67;;;;;;;;;;5050323;28;20220;-65
2023/05/04 13:33:21;;;;;;;4.70;1.73;;;;;;;;;;5049597;28;20562;-65
2023/05/04 13:35:47;;;;;;;6.23;1.70;;;;;;;;;;5047113;28;20476;-64
2023/05/04 13:38:12;;;;;;;5.65;1.75;;;;;;;;;;5046235;28;21036;-65
2023/05/04 13:40:37;;;;;;;5.57;1.50;;;;;;;;;;5052461;28;20476;-66
2023/05/04 13:43:02;;;;;;;5.05;1.48;;;;;;;;;;5054512;28;20016;-65
2023/05/04 13:45:28;;;;;;;5.88;1.50;;;;;;;;;;5047345;28;20177;-66
2023/05/04 13:47:53;;;;;;;11.73;2.15;;;;;;;;;;5049685;28;20021;-66
2023/05/04 13:50:18;;;;;;;7.47;1.90;;;;;;;;;;5051958;28;20029;-66
2023/05/04 13:52:44;;;;;;;4.97;1.90;;;;;;;;;;5049692;28;20373;-66
2023/05/04 13:55:09;;;;;;;7.93;2.17;;;;;;;;;;5054448;28;20048;-66
2023/05/04 13:57:34;;;;;;;5.20;1.73;;;;;;;;;;5043371;28;20477;-64
2023/05/04 14:00:00;;;;;;;5.90;1.70;;;;;;;;;;5050305;28;20548;-65
2023/05/04 14:02:25;;;;;;;5.20;1.88;;;;;;;;;;5049796;28;20025;-65
2023/05/04 14:04:50;;;;;;;6.63;1.90;;;;;;;;;;5054498;28;20020;-66
2023/05/04 14:07:16;;;;;;;6.57;2.00;;;;;;;;;;5053234;28;20053;-66
2023/05/04 14:09:41;;;;;;;5.90;1.83;;;;;;;;;;5056432;28;20021;-66
2023/05/04 14:12:06;;;;;;;7.27;2.00;;;;;;;;;;5055641;28;20024;-65
2023/05/04 14:14:32;;;;;;;6.25;1.90;;;;;;;;;;5053164;28;20115;-66
2023/05/04 14:16:57;;;;;;;6.57;1.70;;;;;;;;;;5053784;28;20118;-66
2023/05/04 14:19:24;;;;;;;6.50;1.93;;;;;;;;;;5057152;28;20028;-66
2023/05/04 14:21:49;;;;;;;5.50;1.90;;;;;;;;;;5065700;28;20551;-66
2023/05/04 14:24:14;;;;;;;4.85;1.92;;;;;;;;;;5073670;28;20104;-66
2023/05/04 14:26:39;;;;;;;5.65;1.90;;;;;;;;;;5074190;28;20400;-66
2023/05/04 14:29:05;;;;;;;5.83;1.87;;;;;;;;;;5050621;28;20082;-66
2023/05/04 14:31:30;;;;;;;5.27;1.90;;;;;;;;;;5053770;28;20100;-65
2023/05/04 14:33:55;;;;;;;6.80;1.85;;;;;;;;;;5060681;28;20024;-65